createdAt,value
2023-02-19T00:00:26.243Z,5.95
2023-02-19T00:02:58.821Z,5.93
2023-02-19T00:05:30.455Z,5.92
2023-02-19T00:08:01.545Z,5.92
2023-02-19T00:10:32.052Z,5.91
2023-02-19T00:13:02.441Z,5.92
2023-02-19T00:15:34.456Z,5.92
2023-02-19T00:18:08.448Z,5.93
2023-02-19T00:20:38.791Z,5.93
2023-02-19T00:23:09.108Z,5.93
2023-02-19T00:25:41.664Z,5.93
2023-02-19T00:28:12.743Z,5.93
2023-02-19T00:30:45.078Z,5.92
2023-02-19T00:33:16.709Z,5.93
2023-02-19T00:35:48.248Z,5.91
2023-02-19T00:38:19.285Z,5.90
2023-02-19T00:40:50.196Z,5.89
2023-02-19T00:43:24.258Z,5.89
2023-02-19T00:45:56.676Z,5.88
2023-02-19T00:48:27.455Z,5.87
2023-02-19T00:50:58.640Z,5.86
2023-02-19T00:53:29.185Z,5.82
2023-02-19T00:55:59.771Z,5.81
2023-02-19T00:58:30.162Z,5.78
2023-02-19T01:01:04.362Z,5.79
2023-02-19T01:03:38.582Z,5.79
2023-02-19T01:06:11.834Z,5.78
2023-02-19T01:08:43.142Z,5.76
2023-02-19T01:11:17.595Z,5.75
2023-02-19T01:13:48.462Z,5.74
2023-02-19T01:16:22.296Z,5.72
2023-02-19T01:18:55.417Z,5.68
2023-02-19T01:21:27.576Z,5.66
2023-02-19T01:23:59.081Z,5.63
2023-02-19T01:26:32.826Z,5.61
2023-02-19T01:29:03.699Z,5.59
2023-02-19T01:31:37.206Z,5.58
2023-02-19T01:34:11.227Z,5.57
2023-02-19T01:36:49.051Z,5.55
2023-02-19T01:39:20.382Z,5.55
2023-02-19T01:41:50.787Z,5.54
2023-02-19T01:44:56.434Z,5.54
2023-02-19T01:47:26.944Z,5.54
2023-02-19T01:49:59.398Z,5.55
2023-02-19T01:52:33.578Z,5.55
2023-02-19T01:55:11.092Z,5.55
2023-02-19T01:57:46.418Z,5.55
2023-02-19T02:00:23.581Z,5.55
2023-02-19T02:02:59.274Z,5.57
2023-02-19T02:05:44.955Z,5.58
2023-02-19T02:08:33.947Z,5.56
2023-02-19T02:11:05.088Z,5.56
2023-02-19T02:13:37.999Z,5.56
2023-02-19T02:16:23.271Z,5.58
2023-02-19T02:19:06.782Z,5.59
2023-02-19T02:22:00.293Z,5.58
2023-02-19T02:24:58.727Z,5.59
2023-02-19T02:27:44.204Z,5.61
2023-02-19T02:30:30.567Z,5.63
2023-02-19T02:33:09.135Z,5.65
2023-02-19T02:35:46.080Z,5.67
2023-02-19T02:38:19.504Z,5.68
2023-02-19T02:40:50.690Z,5.67
2023-02-19T02:43:22.050Z,5.67
2023-02-19T02:45:52.470Z,5.67
2023-02-19T02:48:40.988Z,5.65
2023-02-19T02:51:22.382Z,5.65
2023-02-19T02:54:24.007Z,5.65
2023-02-19T02:56:56.209Z,5.64
2023-02-19T02:59:29.851Z,5.63
2023-02-19T03:02:15.113Z,5.64
2023-02-19T03:05:11.907Z,5.66
2023-02-19T03:07:54.670Z,5.66
2023-02-19T03:10:32.675Z,5.64
2023-02-19T03:13:26.167Z,5.65
2023-02-19T03:16:15.269Z,5.66
2023-02-19T03:19:08.887Z,5.66
2023-02-19T03:21:43.150Z,5.65
2023-02-19T03:24:33.485Z,5.66
2023-02-19T03:27:08.674Z,5.66
2023-02-19T03:29:44.657Z,5.68
2023-02-19T03:32:20.824Z,5.69
2023-02-19T03:34:58.208Z,5.71
2023-02-19T03:37:33.729Z,5.71
2023-02-19T03:40:04.749Z,5.70
2023-02-19T03:42:43.152Z,5.68
2023-02-19T03:45:37.476Z,5.65
2023-02-19T03:48:25.486Z,5.64
2023-02-19T03:51:05.377Z,5.62
2023-02-19T03:53:46.233Z,5.63
2023-02-19T03:56:26.711Z,5.65
2023-02-19T03:59:02.490Z,5.63
2023-02-19T04:01:42.625Z,5.63
2023-02-19T04:04:21.229Z,5.63
2023-02-19T04:06:55.469Z,5.63
2023-02-19T04:09:32.312Z,5.64
2023-02-19T04:12:09.444Z,5.65
2023-02-19T04:14:44.691Z,5.66
2023-02-19T04:17:21.086Z,5.68
2023-02-19T04:19:54.726Z,5.68
2023-02-19T04:22:26.797Z,5.68
2023-02-19T04:24:57.678Z,5.68
2023-02-19T04:27:33.830Z,5.68
2023-02-19T04:30:04.613Z,5.68
2023-02-19T04:32:38.493Z,5.68
2023-02-19T04:35:09.816Z,5.68
2023-02-19T04:37:40.099Z,5.67
2023-02-19T04:40:12.342Z,5.67
2023-02-19T04:42:43.711Z,5.66
2023-02-19T04:45:16.813Z,5.67
2023-02-19T04:47:47.181Z,5.68
2023-02-19T04:50:17.792Z,5.65
2023-02-19T04:52:48.136Z,5.65
2023-02-19T04:55:19.522Z,5.66
2023-02-19T04:57:49.874Z,5.65
2023-02-19T05:00:22.765Z,5.65
2023-02-19T05:02:55.367Z,5.66
2023-02-19T05:05:26.837Z,5.65
2023-02-19T05:07:57.195Z,5.63
2023-02-19T05:10:27.729Z,5.62
2023-02-19T05:12:58.879Z,5.61
2023-02-19T05:15:30.381Z,5.61
2023-02-19T05:18:01.966Z,5.61
2023-02-19T05:20:32.410Z,5.61
2023-02-19T05:23:02.799Z,5.61
2023-02-19T05:25:33.886Z,5.60
2023-02-19T05:28:17.849Z,5.60
2023-02-19T05:30:50.491Z,5.59
2023-02-19T05:33:23.649Z,5.59
2023-02-19T05:35:56.006Z,5.58
2023-02-19T05:38:26.863Z,5.56
2023-02-19T05:41:04.694Z,5.55
2023-02-19T05:43:38.061Z,5.55
2023-02-19T05:46:11.724Z,5.54
2023-02-19T05:48:45.156Z,5.54
2023-02-19T05:51:16.882Z,5.53
2023-02-19T05:53:51.365Z,5.52
2023-02-19T05:56:28.950Z,5.51
2023-02-19T05:59:00.131Z,5.50
2023-02-19T06:01:31.555Z,5.48
2023-02-19T06:04:02.282Z,5.48
2023-02-19T06:06:32.654Z,5.47
2023-02-19T06:09:05.124Z,5.48
2023-02-19T06:11:35.739Z,5.48
2023-02-19T06:14:06.532Z,5.47
2023-02-19T06:16:36.901Z,5.47
2023-02-19T06:19:07.337Z,5.47
2023-02-19T06:21:37.837Z,5.47
2023-02-19T06:24:10.078Z,5.46
2023-02-19T06:26:41.551Z,5.45
2023-02-19T06:29:12.036Z,5.45
2023-02-19T06:31:43.013Z,5.43
2023-02-19T06:34:13.862Z,5.43
2023-02-19T06:36:44.657Z,5.42
2023-02-19T06:39:15.076Z,5.41
2023-02-19T06:41:45.570Z,5.42
2023-02-19T06:44:15.974Z,5.40
2023-02-19T06:46:46.762Z,5.41
2023-02-19T06:49:17.517Z,5.40
2023-02-19T06:51:47.863Z,5.39
2023-02-19T06:54:19.795Z,5.38
2023-02-19T06:56:51.683Z,5.38
2023-02-19T06:59:22.154Z,5.38
2023-02-19T07:01:54.932Z,5.36
2023-02-19T07:04:27.062Z,5.33
2023-02-19T07:07:02.021Z,5.32
2023-02-19T07:09:34.592Z,5.28
2023-02-19T07:12:05.246Z,5.24
2023-02-19T07:14:37.613Z,5.23
2023-02-19T07:17:07.977Z,5.20
2023-02-19T07:19:38.388Z,5.13
2023-02-19T07:22:16.083Z,5.07
2023-02-19T07:24:48.635Z,4.96
2023-02-19T07:27:19.103Z,4.87
2023-02-19T07:29:50.869Z,4.74
2023-02-19T07:32:21.237Z,4.69
2023-02-19T07:34:51.613Z,4.61
2023-02-19T07:37:22.165Z,4.56
2023-02-19T07:39:54.311Z,4.48
2023-02-19T07:42:25.097Z,4.45
2023-02-19T07:44:58.445Z,4.40
2023-02-19T07:47:31.450Z,4.33
2023-02-19T07:50:01.860Z,4.30
2023-02-19T07:52:52.325Z,4.27
2023-02-19T07:55:31.044Z,4.23
2023-02-19T07:58:04.745Z,4.21
2023-02-19T08:00:36.267Z,4.19
2023-02-19T08:03:07.085Z,4.16
2023-02-19T08:05:41.390Z,4.09
2023-02-19T08:08:14.249Z,3.99
2023-02-19T08:11:02.530Z,3.89
2023-02-19T08:13:34.241Z,3.82
2023-02-19T08:16:24.387Z,3.79
2023-02-19T08:19:05.010Z,3.70
2023-02-19T08:21:36.248Z,3.64
2023-02-19T08:24:09.326Z,3.58
2023-02-19T08:26:44.559Z,3.53
2023-02-19T08:29:15.015Z,3.44
2023-02-19T08:31:48.155Z,3.38
2023-02-19T08:34:18.830Z,3.34
2023-02-19T08:36:53.123Z,3.31
2023-02-19T08:39:24.673Z,3.30
2023-02-19T08:41:55.402Z,3.29
2023-02-19T08:44:26.785Z,3.28
2023-02-19T08:46:59.514Z,3.31
2023-02-19T08:49:33.778Z,3.31
2023-02-19T08:52:07.730Z,3.33
2023-02-19T08:54:46.748Z,3.32
2023-02-19T08:57:17.746Z,3.27
2023-02-19T08:59:52.341Z,3.22
2023-02-19T09:02:27.300Z,3.14
2023-02-19T09:04:58.498Z,3.11
2023-02-19T09:07:29.206Z,3.05
2023-02-19T09:09:59.758Z,3.02
2023-02-19T09:12:30.089Z,3.04
2023-02-19T09:15:00.669Z,3.04
2023-02-19T09:17:31.180Z,3.06
2023-02-19T09:20:01.639Z,3.10
2023-02-19T09:22:32.393Z,3.07
2023-02-19T09:25:02.930Z,3.11
2023-02-19T09:27:33.737Z,3.19
2023-02-19T09:30:04.778Z,3.27
2023-02-19T09:32:35.514Z,3.33
2023-02-19T09:35:06.348Z,3.40
2023-02-19T09:37:37.036Z,3.49
2023-02-19T09:42:53.650Z,3.58
2023-02-19T09:45:29.867Z,3.64
2023-02-19T09:48:00.772Z,3.71
2023-02-19T09:50:38.461Z,3.80
2023-02-19T09:53:16.854Z,3.92
2023-02-19T09:55:47.834Z,4.06
2023-02-19T09:58:27.386Z,4.10
2023-02-19T10:01:01.300Z,4.13
2023-02-19T10:03:35.463Z,4.18
2023-02-19T10:06:16.662Z,4.20
2023-02-19T10:08:48.944Z,4.23
2023-02-19T10:11:20.559Z,4.28
2023-02-19T10:14:02.980Z,4.35
2023-02-19T10:16:37.400Z,4.45
2023-02-19T10:19:10.512Z,4.50
2023-02-19T10:21:41.341Z,4.52
2023-02-19T10:24:19.672Z,4.50
2023-02-19T10:26:50.783Z,4.47
2023-02-19T10:29:29.418Z,4.47
2023-02-19T10:32:21.157Z,4.54
2023-02-19T10:35:10.329Z,4.57
2023-02-19T10:37:47.266Z,4.60
2023-02-19T10:40:24.015Z,4.59
2023-02-19T10:42:58.921Z,4.52
2023-02-19T10:45:35.158Z,4.50
2023-02-19T10:48:09.788Z,4.46
2023-02-19T10:50:44.962Z,4.40
2023-02-19T10:53:26.637Z,4.41
2023-02-19T10:56:10.202Z,4.51
2023-02-19T10:58:42.493Z,4.60
2023-02-19T11:01:22.266Z,4.63
2023-02-19T11:03:54.577Z,4.68
2023-02-19T11:06:29.556Z,4.77
2023-02-19T11:09:01.787Z,4.79
2023-02-19T11:11:35.174Z,4.83
2023-02-19T11:14:15.214Z,4.86
2023-02-19T11:16:49.033Z,4.87
2023-02-19T11:19:43.590Z,4.85
2023-02-19T11:22:33.142Z,4.94
2023-02-19T11:25:09.196Z,4.94
2023-02-19T11:27:56.617Z,4.90
2023-02-19T11:30:41.186Z,4.87
2023-02-19T11:33:44.279Z,4.78
2023-02-19T11:36:33.539Z,4.66
2023-02-19T11:39:20.645Z,4.65
2023-02-19T11:42:17.491Z,4.63
2023-02-19T11:45:01.956Z,4.61
2023-02-19T11:48:14.188Z,4.60
2023-02-19T11:50:54.161Z,4.54
2023-02-19T11:53:29.369Z,4.57
2023-02-19T11:56:21.894Z,4.57
2023-02-19T11:59:14.031Z,4.59
2023-02-19T12:02:16.687Z,4.75
2023-02-19T12:05:01.694Z,4.96
2023-02-19T12:08:05.889Z,4.94
2023-02-19T12:10:52.438Z,4.82
2023-02-19T12:13:32.919Z,4.73
2023-02-19T12:16:21.281Z,4.72
2023-02-19T12:19:10.228Z,4.65
2023-02-19T12:21:56.418Z,4.80
2023-02-19T12:24:43.682Z,5.06
2023-02-19T12:27:28.045Z,5.15
2023-02-19T12:30:17.200Z,5.11
2023-02-19T12:33:15.225Z,5.11
2023-02-19T12:36:04.719Z,5.13
2023-02-19T12:38:44.243Z,5.36
2023-02-19T12:41:35.644Z,5.71
2023-02-19T12:44:14.750Z,5.98
2023-02-19T12:46:51.586Z,6.16
2023-02-19T12:49:27.519Z,6.27
2023-02-19T12:52:01.545Z,6.37
2023-02-19T12:55:06.943Z,6.61
2023-02-19T12:57:49.486Z,7.55
2023-02-19T13:00:32.477Z,8.22
2023-02-19T13:03:09.016Z,8.20
2023-02-19T13:05:48.077Z,7.94
2023-02-19T13:08:25.856Z,7.62
2023-02-19T13:11:03.763Z,7.40
2023-02-19T13:13:42.014Z,6.99
2023-02-19T13:16:21.886Z,6.74
2023-02-19T13:19:02.884Z,6.64
2023-02-19T13:22:03.268Z,6.53
2023-02-19T13:24:42.341Z,6.88
2023-02-19T13:27:50.544Z,7.23
2023-02-19T13:30:56.229Z,6.94
2023-02-19T13:33:42.231Z,6.54
2023-02-19T13:36:28.476Z,6.30
2023-02-19T13:39:09.959Z,6.23
2023-02-19T13:42:00.252Z,6.81
2023-02-19T13:44:34.666Z,7.19
2023-02-19T13:47:30.360Z,7.13
2023-02-19T13:50:12.343Z,6.88
2023-02-19T13:52:57.974Z,7.23
2023-02-19T13:55:51.961Z,7.97
2023-02-19T13:58:53.149Z,7.44
2023-02-19T14:02:24.049Z,7.12
2023-02-19T14:05:46.956Z,7.66
2023-02-19T14:12:15.706Z,8.76
2023-02-19T14:16:19.833Z,8.53
2023-02-19T14:18:57.015Z,7.76
2023-02-19T14:21:39.332Z,7.24
2023-02-19T14:24:17.949Z,6.62
2023-02-19T14:30:27.096Z,5.81
2023-02-19T14:33:11.069Z,5.53
2023-02-19T14:36:10.800Z,5.33
2023-02-19T14:42:53.112Z,4.82
2023-02-19T14:46:12.613Z,4.71
2023-02-19T14:49:36.780Z,4.73
2023-02-19T14:52:57.795Z,4.81
2023-02-19T15:00:02.561Z,4.75
2023-02-19T15:07:17.524Z,4.59
2023-02-19T15:22:51.173Z,4.64
2023-02-19T15:26:15.791Z,4.57
2023-02-19T15:29:33.260Z,4.46
2023-02-19T15:32:36.016Z,4.42
2023-02-19T15:35:28.002Z,4.33
2023-02-19T15:38:12.552Z,4.32
2023-02-19T15:40:49.558Z,4.33
2023-02-19T15:43:58.369Z,4.32
2023-02-19T15:46:48.924Z,4.27
2023-02-19T15:49:31.129Z,4.22
2023-02-19T15:52:17.867Z,4.18
2023-02-19T15:55:15.476Z,4.14
2023-02-19T15:57:55.844Z,4.11
2023-02-19T16:00:53.773Z,4.08
2023-02-19T16:03:42.031Z,4.05
2023-02-19T16:06:29.187Z,3.99
2023-02-19T16:09:10.461Z,3.94
2023-02-19T16:11:49.809Z,3.91
2023-02-19T16:14:29.392Z,3.89
2023-02-19T16:17:07.459Z,3.87
2023-02-19T16:19:49.381Z,3.85
2023-02-19T16:22:22.480Z,3.81
2023-02-19T16:24:57.274Z,3.75
2023-02-19T16:27:35.650Z,3.68
2023-02-19T16:30:30.863Z,3.63
2023-02-19T16:36:41.820Z,3.58
2023-02-19T16:39:28.986Z,3.55
2023-02-19T16:42:25.126Z,3.51
2023-02-19T16:45:58.470Z,3.45
2023-02-19T16:49:11.226Z,3.38
2023-02-19T16:52:23.042Z,3.37
2023-02-19T16:54:56.575Z,3.37
2023-02-19T16:57:53.546Z,3.37
2023-02-19T17:00:38.919Z,3.36
2023-02-19T17:03:13.127Z,3.34
2023-02-19T17:05:44.058Z,3.31
2023-02-19T17:08:31.407Z,3.28
2023-02-19T17:11:03.087Z,3.21
2023-02-19T17:13:33.904Z,3.16
2023-02-19T17:16:04.724Z,3.09
2023-02-19T17:18:45.604Z,3.04
2023-02-19T17:21:21.031Z,2.96
2023-02-19T17:23:52.119Z,2.90
2023-02-19T17:26:25.440Z,2.84
2023-02-19T17:28:58.207Z,2.78
2023-02-19T17:31:29.250Z,2.71
2023-02-19T17:34:00.310Z,2.67
2023-02-19T17:36:32.920Z,2.65
2023-02-19T17:39:14.678Z,2.65
2023-02-19T17:41:45.316Z,2.64
2023-02-19T17:44:17.724Z,2.62
2023-02-19T17:46:49.806Z,2.62
2023-02-19T17:49:20.342Z,2.61
2023-02-19T17:51:50.853Z,2.62
2023-02-19T17:54:21.192Z,2.61
2023-02-19T17:56:51.555Z,2.62
2023-02-19T17:59:22.025Z,2.61
2023-02-19T18:01:54.934Z,2.61
2023-02-19T18:04:27.856Z,2.61
2023-02-19T18:06:58.500Z,2.61
2023-02-19T18:09:29.008Z,2.60
2023-02-19T18:11:59.329Z,2.58
2023-02-19T18:14:31.405Z,2.54
2023-02-19T18:17:02.620Z,2.52
2023-02-19T18:19:33.025Z,2.52
2023-02-19T18:22:06.660Z,2.53
2023-02-19T18:24:38.808Z,2.54
2023-02-19T18:27:09.407Z,2.54
2023-02-19T18:29:39.842Z,2.55
2023-02-19T18:32:10.477Z,2.54
2023-02-19T18:34:40.961Z,2.53
2023-02-19T18:37:11.309Z,2.52
2023-02-19T18:39:41.716Z,2.51
2023-02-19T18:42:12.641Z,2.50
2023-02-19T18:44:43.611Z,2.48
2023-02-19T18:47:14.182Z,2.45
2023-02-19T18:49:47.948Z,2.41
2023-02-19T18:52:20.359Z,2.35
2023-02-19T18:54:52.378Z,2.30
2023-02-19T18:57:24.232Z,2.25
2023-02-19T18:59:55.031Z,2.21
2023-02-19T19:02:29.741Z,2.17
2023-02-19T19:05:02.378Z,2.12
2023-02-19T19:07:32.895Z,2.08
2023-02-19T19:10:03.230Z,2.03
2023-02-19T19:12:33.592Z,1.97
2023-02-19T19:15:04.206Z,1.93
2023-02-19T19:17:35.057Z,1.88
2023-02-19T19:20:06.649Z,1.84
2023-02-19T19:22:37.123Z,1.80
2023-02-19T19:25:09.261Z,1.76
2023-02-19T19:27:39.681Z,1.71
2023-02-19T19:30:11.544Z,1.67
2023-02-19T19:32:42.223Z,1.65
2023-02-19T19:35:13.133Z,1.62
2023-02-19T19:37:43.657Z,1.59
2023-02-19T19:40:16.692Z,1.56
2023-02-19T19:42:47.888Z,1.54
2023-02-19T19:45:21.458Z,1.52
2023-02-19T19:47:53.103Z,1.49
2023-02-19T19:50:23.582Z,1.45
2023-02-19T19:52:54.819Z,1.41
2023-02-19T19:55:27.491Z,1.40
2023-02-19T19:57:57.827Z,1.41
2023-02-19T20:00:29.498Z,1.38
2023-02-19T20:03:02.869Z,1.37
2023-02-19T20:05:33.987Z,1.37
2023-02-19T20:08:04.736Z,1.36
2023-02-19T20:10:38.881Z,1.35
2023-02-19T20:13:09.801Z,1.34
2023-02-19T20:15:40.503Z,1.34
2023-02-19T20:18:11.037Z,1.32
2023-02-19T20:20:41.908Z,1.30
2023-02-19T20:23:15.253Z,1.28
2023-02-19T20:25:46.011Z,1.27
2023-02-19T20:28:16.581Z,1.26
2023-02-19T20:30:46.928Z,1.25
2023-02-19T20:33:17.602Z,1.23
2023-02-19T20:35:47.960Z,1.25
2023-02-19T20:38:18.689Z,1.24
2023-02-19T20:40:49.366Z,1.25
2023-02-19T20:43:21.095Z,1.25
2023-02-19T20:45:51.489Z,1.26
2023-02-19T20:48:23.132Z,1.25
2023-02-19T20:50:59.270Z,1.23
2023-02-19T20:53:32.055Z,1.22
2023-02-19T20:56:02.528Z,1.20
2023-02-19T20:58:32.843Z,1.18
2023-02-19T21:01:03.238Z,1.17
2023-02-19T21:03:35.336Z,1.16
2023-02-19T21:06:05.990Z,1.15
2023-02-19T21:08:38.566Z,1.13
2023-02-19T21:11:09.330Z,1.12
2023-02-19T21:13:39.978Z,1.11
2023-02-19T21:16:11.294Z,1.11
2023-02-19T21:18:41.941Z,1.11
2023-02-19T21:21:12.349Z,1.12
2023-02-19T21:23:43.431Z,1.12
2023-02-19T21:26:14.471Z,1.11
2023-02-19T21:28:45.050Z,1.10
2023-02-19T21:31:15.482Z,1.11
2023-02-19T21:33:46.409Z,1.10
2023-02-19T21:36:19.151Z,1.08
2023-02-19T21:38:50.055Z,1.07
2023-02-19T21:41:20.516Z,1.06
2023-02-19T21:43:50.898Z,1.06
2023-02-19T21:46:22.150Z,1.06
2023-02-19T21:48:54.958Z,1.06
2023-02-19T21:51:37.972Z,1.07
2023-02-19T21:54:12.294Z,1.07
2023-02-19T21:56:42.722Z,1.06
2023-02-19T21:59:13.245Z,1.06
2023-02-19T22:01:44.600Z,1.03
2023-02-19T22:04:16.738Z,1.00
2023-02-19T22:06:47.638Z,0.98
2023-02-19T22:09:20.667Z,0.96
2023-02-19T22:11:51.304Z,0.93
2023-02-19T22:14:21.922Z,0.90
2023-02-19T22:16:52.802Z,0.87
2023-02-19T22:19:23.242Z,0.85
2023-02-19T22:21:53.621Z,0.84
2023-02-19T22:24:24.342Z,0.82
2023-02-19T22:26:58.557Z,0.80
2023-02-19T22:29:31.238Z,0.77
2023-02-19T22:32:01.797Z,0.74
2023-02-19T22:34:32.427Z,0.71
2023-02-19T22:37:02.829Z,0.69
2023-02-19T22:39:34.299Z,0.67
2023-02-19T22:42:05.137Z,0.64
2023-02-19T22:44:37.834Z,0.62
2023-02-19T22:47:10.311Z,0.58
2023-02-19T22:49:43.848Z,0.58
2023-02-19T22:52:17.804Z,0.56
2023-02-19T22:54:48.257Z,0.55
2023-02-19T22:57:19.146Z,0.54
2023-02-19T22:59:49.540Z,0.53
2023-02-19T23:02:20.365Z,0.51
2023-02-19T23:04:51.049Z,0.49
2023-02-19T23:07:21.488Z,0.47
2023-02-19T23:09:51.991Z,0.45
2023-02-19T23:12:22.742Z,0.44
2023-02-19T23:14:55.182Z,0.42
2023-02-19T23:17:25.754Z,0.40
2023-02-19T23:19:56.606Z,0.39
2023-02-19T23:22:27.478Z,0.38
2023-02-19T23:24:59.572Z,0.36
2023-02-19T23:27:30.279Z,0.35
2023-02-19T23:30:00.791Z,0.34
2023-02-19T23:32:31.121Z,0.33
2023-02-19T23:35:01.538Z,0.30
2023-02-19T23:37:32.143Z,0.29
2023-02-19T23:40:02.800Z,0.27
2023-02-19T23:42:33.542Z,0.26
2023-02-19T23:45:04.554Z,0.25
2023-02-19T23:47:34.988Z,0.25
2023-02-19T23:50:05.775Z,0.25
2023-02-19T23:52:36.603Z,0.27
2023-02-19T23:55:08.338Z,0.28
2023-02-19T23:57:38.663Z,0.28
